Time;durP1;ratioP1;P1;durP2;ratioP2;P2;SDS_P1;SDS_P2;PMS_P1;PMS_P2;Temp;Humidity;BMP_temperature;BMP_pressure;BME280_temperature;BME280_humidity;BME280_pressure;Samples;Min_cycle;Max_cycle;Signal;HPM_P1;HPM_P2
2021/10/27 00:02:13;;;;;;;;;;;13.50;99.90;;;;;;5116718;28;19920;-56
2021/10/27 00:04:38;;;;;;;;;;;13.50;99.90;;;;;;5116455;28;20289;-57
2021/10/27 00:07:04;;;;;;;;;;;13.50;99.90;;;;;;5116308;28;20297;-57
2021/10/27 00:09:29;;;;;;;;;;;13.60;99.90;;;;;;5116150;28;19916;-58
2021/10/27 00:11:55;;;;;;;;;;;13.60;99.90;;;;;;5116309;28;19916;-57
2021/10/27 00:14:21;;;;;;;;;;;13.60;99.90;;;;;;5116273;28;19916;-57
2021/10/27 00:16:46;;;;;;;;;;;13.60;99.90;;;;;;5116149;28;19916;-57
2021/10/27 00:19:12;;;;;;;;;;;13.60;99.90;;;;;;5116029;28;20359;-57
2021/10/27 00:21:37;;;;;;;;;;;13.60;99.90;;;;;;5115912;28;20265;-57
2021/10/27 00:24:03;;;;;;;;;;;13.60;99.90;;;;;;5116213;28;19998;-57
2021/10/27 00:26:29;;;;;;;;;;;13.50;99.90;;;;;;5115838;28;19916;-57
2021/10/27 00:28:54;;;;;;;;;;;13.50;99.90;;;;;;5115982;28;19916;-56
2021/10/27 00:31:20;;;;;;;;;;;13.60;99.90;;;;;;5115873;28;19926;-57
2021/10/27 00:33:46;;;;;;;;;;;13.60;99.90;;;;;;5115745;28;20253;-57
2021/10/27 00:36:11;;;;;;;;;;;13.60;99.90;;;;;;5115781;28;19969;-56
2021/10/27 00:38:37;;;;;;;;;;;13.60;99.90;;;;;;5097658;28;20709;-56
2021/10/27 00:41:03;;;;;;;;;;;13.60;99.90;;;;;;5115630;28;19915;-57
2021/10/27 00:43:28;;;;;;;;;;;13.60;99.90;;;;;;5114968;28;19966;-56
2021/10/27 00:45:54;;;;;;;;;;;13.60;99.90;;;;;;5115441;28;20246;-56
2021/10/27 00:48:19;;;;;;;;;;;13.60;99.90;;;;;;5115507;28;19927;-56
2021/10/27 00:50:45;;;;;;;;;;;13.60;99.90;;;;;;5115439;28;19916;-57
2021/10/27 00:53:10;;;;;;;;;;;13.50;99.90;;;;;;5115565;28;20002;-56
2021/10/27 00:55:36;;;;;;;;;;;13.60;99.90;;;;;;5115375;28;19922;-57
2021/10/27 00:58:02;;;;;;;;;;;13.50;99.90;;;;;;5115632;28;19916;-56
2021/10/27 01:00:27;;;;;;;;;;;13.60;99.90;;;;;;5115380;28;19942;-57
2021/10/27 01:02:53;;;;;;;;;;;13.50;99.90;;;;;;5115183;28;19920;-57
2021/10/27 01:05:19;;;;;;;;;;;13.60;99.90;;;;;;5115114;28;19955;-57
2021/10/27 01:07:45;;;;;;;;;;;13.60;99.90;;;;;;5115271;28;20327;-57
2021/10/27 01:10:11;;;;;;;;;;;13.60;99.90;;;;;;5114905;28;19916;-57
2021/10/27 01:12:37;;;;;;;;;;;13.60;99.90;;;;;;5115006;28;20262;-57
2021/10/27 01:15:02;;;;;;;;;;;13.60;99.90;;;;;;5115124;28;19926;-57
2021/10/27 01:17:28;;;;;;;;;;;13.60;99.90;;;;;;5115059;28;19916;-56
2021/10/27 01:19:58;;;;;;;;;;;13.60;99.90;;;;;;5115010;28;20636;-57
2021/10/27 01:22:38;;;;;;;;;;;13.60;99.90;;;;;;5115055;28;20006;-56
2021/10/27 01:25:06;;;;;;;;;;;13.60;99.90;;;;;;5114677;28;19915;-57
2021/10/27 01:27:32;;;;;;;;;;;13.60;99.90;;;;;;5114224;28;20150;-57
2021/10/27 01:29:57;;;;;;;;;;;13.70;99.90;;;;;;5114539;28;19915;-57
2021/10/27 01:32:31;;;;;;;;;;;13.70;99.90;;;;;;5114217;28;19994;-57
2021/10/27 01:34:56;;;;;;;;;;;13.70;99.90;;;;;;5114867;28;20297;-57
2021/10/27 01:37:22;;;;;;;;;;;13.70;99.90;;;;;;5114363;28;19915;-57
2021/10/27 01:39:48;;;;;;;;;;;13.70;99.90;;;;;;5114077;28;19919;-57
2021/10/27 01:42:14;;;;;;;;;;;13.70;99.90;;;;;;5114163;28;20016;-57
2021/10/27 01:44:40;;;;;;;;;;;13.70;99.90;;;;;;5114084;28;19920;-57
2021/10/27 01:47:06;;;;;;;;;;;13.70;99.90;;;;;;5114080;28;20369;-57
2021/10/27 01:49:31;;;;;;;;;;;13.70;99.90;;;;;;5114146;28;19915;-57
2021/10/27 01:51:58;;;;;;;;;;;13.80;99.90;;;;;;5114117;28;20455;-56
2021/10/27 01:54:25;;;;;;;;;;;13.70;99.90;;;;;;5113650;28;19968;-57
2021/10/27 01:56:51;;;;;;;;;;;13.80;99.90;;;;;;5113430;28;20330;-57
2021/10/27 01:59:16;;;;;;;;;;;13.80;99.90;;;;;;5113762;28;19916;-57
2021/10/27 02:01:42;;;;;;;;;;;13.80;99.90;;;;;;5113665;28;19915;-57
2021/10/27 02:04:07;;;;;;;;;;;13.80;99.90;;;;;;5095427;28;20297;-57
2021/10/27 02:06:33;;;;;;;;;;;13.80;99.90;;;;;;5113734;28;19916;-57
2021/10/27 02:08:58;;;;;;;;;;;13.80;99.90;;;;;;5113814;28;19922;-57
2021/10/27 02:11:24;;;;;;;;;;;13.80;99.90;;;;;;5113698;28;19916;-57
2021/10/27 02:13:49;;;;;;;;;;;13.80;99.90;;;;;;5113752;28;19923;-57
2021/10/27 02:16:15;;;;;;;;;;;13.70;99.90;;;;;;5113619;28;20283;-56
2021/10/27 02:18:40;;;;;;;;;;;13.80;99.90;;;;;;5113646;28;20348;-57
2021/10/27 02:21:06;;;;;;;;;;;13.70;99.90;;;;;;5113571;28;19938;-57
2021/10/27 02:23:31;;;;;;;;;;;13.70;99.90;;;;;;5113425;28;20383;-57
2021/10/27 02:25:57;;;;;;;;;;;13.80;99.90;;;;;;5095160;28;19941;-57
2021/10/27 02:28:23;;;;;;;;;;;13.70;99.90;;;;;;5113243;28;19916;-57
2021/10/27 02:30:49;;;;;;;;;;;13.80;99.90;;;;;;5113297;28;20281;-57
2021/10/27 02:33:15;;;;;;;;;;;13.80;99.90;;;;;;5113421;28;19955;-57
2021/10/27 02:35:40;;;;;;;;;;;13.70;99.90;;;;;;5113184;28;19970;-57
2021/10/27 02:38:06;;;;;;;;;;;13.70;99.90;;;;;;5113111;28;19923;-57
2021/10/27 02:40:32;;;;;;;;;;;13.80;99.90;;;;;;5113080;28;19915;-57
2021/10/27 02:42:58;;;;;;;;;;;13.70;99.90;;;;;;5094607;28;19920;-57
2021/10/27 02:45:23;;;;;;;;;;;13.70;99.90;;;;;;5113353;28;19916;-57
2021/10/27 02:47:49;;;;;;;;;;;13.80;99.90;;;;;;5113276;28;19922;-57
2021/10/27 02:50:14;;;;;;;;;;;13.80;99.90;;;;;;5112986;28;19915;-58
2021/10/27 02:52:41;;;;;;;;;;;13.80;99.90;;;;;;5113232;28;19926;-56
2021/10/27 02:55:07;;;;;;;;;;;13.80;99.90;;;;;;5113057;28;19920;-57
2021/10/27 02:57:33;;;;;;;;;;;13.80;99.90;;;;;;5112970;28;19916;-57
2021/10/27 02:59:58;;;;;;;;;;;13.90;99.90;;;;;;5112687;28;19923;-57
2021/10/27 03:02:24;;;;;;;;;;;13.80;99.90;;;;;;5112962;28;20061;-57
2021/10/27 03:04:50;;;;;;;;;;;13.90;99.90;;;;;;5112907;28;19955;-57
2021/10/27 03:07:15;;;;;;;;;;;13.80;99.90;;;;;;5112677;28;19965;-57
2021/10/27 03:09:41;;;;;;;;;;;13.90;99.90;;;;;;5112829;28;20049;-57
2021/10/27 03:12:07;;;;;;;;;;;13.80;99.90;;;;;;5112613;28;19916;-57
2021/10/27 03:14:32;;;;;;;;;;;13.90;99.90;;;;;;5112495;28;19937;-57
2021/10/27 03:16:58;;;;;;;;;;;13.90;99.90;;;;;;5112642;28;19916;-57
2021/10/27 03:19:23;;;;;;;;;;;13.90;99.90;;;;;;5112781;28;19919;-58
2021/10/27 03:21:49;;;;;;;;;;;13.90;99.90;;;;;;5112861;28;19923;-57
2021/10/27 03:24:15;;;;;;;;;;;13.90;99.90;;;;;;5112520;28;19973;-57
2021/10/27 03:26:41;;;;;;;;;;;13.90;99.90;;;;;;5112511;28;20381;-57
2021/10/27 03:29:06;;;;;;;;;;;13.90;99.90;;;;;;5112366;28;19966;-57
2021/10/27 03:31:32;;;;;;;;;;;13.90;99.90;;;;;;5112522;28;19919;-57
2021/10/27 03:33:58;;;;;;;;;;;13.90;99.90;;;;;;5112822;28;20233;-57
2021/10/27 03:36:24;;;;;;;;;;;14.00;99.90;;;;;;5112613;28;19916;-56
2021/10/27 03:38:49;;;;;;;;;;;14.00;99.90;;;;;;5112102;28;19985;-57
2021/10/27 03:41:15;;;;;;;;;;;14.00;99.90;;;;;;5112420;28;19966;-57
2021/10/27 03:43:41;;;;;;;;;;;14.00;99.90;;;;;;5112223;28;19926;-57
2021/10/27 03:46:07;;;;;;;;;;;14.00;99.90;;;;;;5112567;28;19916;-57
2021/10/27 03:48:32;;;;;;;;;;;14.00;99.90;;;;;;5112495;28;20353;-57
2021/10/27 03:50:58;;;;;;;;;;;13.90;99.90;;;;;;5112373;28;19915;-57
2021/10/27 03:53:23;;;;;;;;;;;14.00;99.90;;;;;;5112317;28;19923;-57
2021/10/27 03:55:49;;;;;;;;;;;14.00;99.90;;;;;;5112335;28;20344;-58
2021/10/27 03:58:14;;;;;;;;;;;14.00;99.90;;;;;;5112141;28;19916;-57
2021/10/27 04:00:40;;;;;;;;;;;14.00;99.90;;;;;;5112189;28;19941;-57
2021/10/27 04:03:06;;;;;;;;;;;14.10;99.90;;;;;;5093939;28;19920;-57
2021/10/27 04:05:31;;;;;;;;;;;14.10;99.90;;;;;;5112246;28;20329;-57
2021/10/27 04:07:57;;;;;;;;;;;14.10;99.90;;;;;;5112199;28;19962;-58
2021/10/27 04:10:22;;;;;;;;;;;14.10;99.90;;;;;;5112342;28;20277;-57
2021/10/27 04:12:48;;;;;;;;;;;14.10;99.90;;;;;;5112234;28;20485;-57
2021/10/27 04:15:14;;;;;;;;;;;14.10;99.90;;;;;;5112215;28;19916;-57
2021/10/27 04:17:40;;;;;;;;;;;14.00;99.90;;;;;;5112191;28;19919;-56
2021/10/27 04:20:07;;;;;;;;;;;14.00;99.90;;;;;;5115556;28;19941;-58
2021/10/27 04:22:33;;;;;;;;;;;14.00;99.90;;;;;;5115620;28;19919;-57
2021/10/27 04:24:59;;;;;;;;;;;14.00;99.90;;;;;;5115611;28;19916;-57
2021/10/27 04:27:24;;;;;;;;;;;14.00;99.90;;;;;;5115576;28;20048;-57
2021/10/27 04:29:50;;;;;;;;;;;14.00;99.90;;;;;;5115751;28;20014;-57
2021/10/27 04:32:15;;;;;;;;;;;14.00;99.90;;;;;;5115678;28;19976;-57
2021/10/27 04:34:41;;;;;;;;;;;14.00;99.90;;;;;;5115556;28;19915;-57
2021/10/27 04:37:08;;;;;;;;;;;14.00;99.90;;;;;;5115622;28;19919;-57
2021/10/27 04:39:34;;;;;;;;;;;14.00;99.90;;;;;;5115280;28;20369;-56
2021/10/27 04:42:00;;;;;;;;;;;14.00;99.90;;;;;;5115201;28;19920;-57
2021/10/27 04:44:25;;;;;;;;;;;14.00;99.90;;;;;;5115526;28;19989;-56
2021/10/27 04:46:51;;;;;;;;;;;14.10;99.90;;;;;;5115407;28;19915;-57
2021/10/27 04:49:16;;;;;;;;;;;14.10;99.90;;;;;;5115384;28;19916;-57
2021/10/27 04:51:42;;;;;;;;;;;14.10;99.90;;;;;;5115364;28;19915;-57
2021/10/27 04:54:08;;;;;;;;;;;14.10;99.90;;;;;;5131515;27;19919;-57
2021/10/27 04:56:33;;;;;;;;;;;14.00;99.90;;;;;;5115307;28;19919;-57
2021/10/27 04:58:59;;;;;;;;;;;14.00;99.90;;;;;;5115057;28;19915;-57
2021/10/27 05:01:25;;;;;;;;;;;14.10;99.90;;;;;;5115084;28;19923;-57
2021/10/27 05:03:51;;;;;;;;;;;14.10;99.90;;;;;;5114988;28;19920;-57
2021/10/27 05:06:16;;;;;;;;;;;14.10;99.90;;;;;;5114876;28;19968;-57
2021/10/27 05:08:46;;;;;;;;;;;14.10;99.90;;;;;;5114840;28;19919;-57
2021/10/27 05:11:11;;;;;;;;;;;14.00;99.90;;;;;;5114649;28;19947;-56
2021/10/27 05:13:37;;;;;;;;;;;14.00;99.90;;;;;;5115017;28;19961;-56
2021/10/27 05:16:02;;;;;;;;;;;14.10;99.90;;;;;;5114992;28;20330;-57
2021/10/27 05:18:28;;;;;;;;;;;14.00;99.90;;;;;;5096207;28;19919;-57
2021/10/27 05:20:53;;;;;;;;;;;14.00;99.90;;;;;;5114705;28;19916;-57
2021/10/27 05:23:19;;;;;;;;;;;14.00;99.90;;;;;;5114555;28;20284;-57
2021/10/27 05:25:44;;;;;;;;;;;14.00;99.90;;;;;;5114924;28;19941;-56
2021/10/27 05:28:11;;;;;;;;;;;14.00;99.90;;;;;;5114425;28;19942;-57
2021/10/27 05:30:36;;;;;;;;;;;14.00;99.90;;;;;;5113392;28;19923;-57
2021/10/27 05:33:02;;;;;;;;;;;14.00;99.90;;;;;;5114453;28;19920;-57
2021/10/27 05:35:28;;;;;;;;;;;14.00;99.90;;;;;;5114293;28;20319;-57
2021/10/27 05:37:54;;;;;;;;;;;14.00;99.90;;;;;;5114185;28;19916;-57
2021/10/27 05:40:20;;;;;;;;;;;14.00;99.90;;;;;;5114430;28;20373;-57
2021/10/27 05:42:46;;;;;;;;;;;14.00;99.90;;;;;;5114615;28;19924;-57
2021/10/27 05:45:12;;;;;;;;;;;14.00;99.90;;;;;;5114336;28;19919;-56
2021/10/27 05:47:41;;;;;;;;;;;14.00;99.90;;;;;;5114232;28;20292;-57
2021/10/27 05:57:39;;;;;;;;;;;14.00;99.90;;;;;;5114056;28;19915;-57
2021/10/27 06:00:06;;;;;;;;;;;14.00;99.90;;;;;;5114020;28;19922;-56
2021/10/27 06:02:31;;;;;;;;;;;14.00;99.90;;;;;;5113991;28;19920;-57
2021/10/27 06:04:57;;;;;;;;;;;14.00;99.90;;;;;;5113755;28;20437;-57
2021/10/27 06:07:22;;;;;;;;;;;14.00;99.90;;;;;;5113684;28;20326;-56
2021/10/27 06:09:49;;;;;;;;;;;14.00;99.90;;;;;;5113794;28;20345;-56
2021/10/27 06:12:16;;;;;;;;;;;14.00;99.90;;;;;;5113731;28;20285;-57
2021/10/27 06:14:42;;;;;;;;;;;14.00;99.90;;;;;;5113478;28;20421;-57
2021/10/27 06:17:07;;;;;;;;;;;14.00;99.90;;;;;;5113096;28;19915;-57
2021/10/27 06:19:33;;;;;;;;;;;14.00;99.90;;;;;;5113495;28;19916;-57
2021/10/27 06:21:58;;;;;;;;;;;14.00;99.90;;;;;;5113768;28;19919;-57
2021/10/27 06:24:24;;;;;;;;;;;14.00;99.90;;;;;;5113686;28;20328;-57
2021/10/27 06:26:51;;;;;;;;;;;14.00;99.90;;;;;;5113498;28;20431;-56
2021/10/27 06:35:03;;;;;;;;;;;14.00;99.90;;;;;;5070411;28;20292;-56
2021/10/27 06:48:08;;;;;;;;;;;14.10;99.90;;;;;;5052950;28;20091;-57
2021/10/27 06:50:33;;;;;;;;;;;14.10;99.90;;;;;;5070257;28;19916;-57
2021/10/27 06:52:59;;;;;;;;;;;14.10;99.90;;;;;;5070185;28;19920;-57
2021/10/27 06:55:25;;;;;;;;;;;14.10;99.90;;;;;;5070121;28;19922;-57
2021/10/27 06:57:51;;;;;;;;;;;14.10;99.90;;;;;;5069972;28;19917;-57
2021/10/27 07:00:34;;;;;;;;;;;14.10;99.90;;;;;;5069995;28;19916;-57
2021/10/27 07:16:38;;;;;;;;;;;14.20;99.90;;;;;;5049975;28;20264;-57
2021/10/27 07:19:04;;;;;;;;;;;14.20;99.90;;;;;;5049840;28;19923;-56
2021/10/27 07:21:29;;;;;;;;;;;14.20;99.90;;;;;;5049700;28;20336;-57
2021/10/27 07:23:55;;;;;;;;;;;14.20;99.90;;;;;;5050069;28;19939;-57
2021/10/27 07:26:21;;;;;;;;;;;14.30;99.90;;;;;;5049922;28;20031;-57
2021/10/27 07:28:49;;;;;;;;;;;14.20;99.90;;;;;;5049711;28;19916;-57
2021/10/27 07:31:16;;;;;;;;;;;14.30;99.90;;;;;;5049761;28;19917;-57
2021/10/27 07:33:43;;;;;;;;;;;14.30;99.90;;;;;;5049884;28;19995;-57
2021/10/27 07:36:27;;;;;;;;;;;14.30;99.90;;;;;;5049790;28;19916;-57
2021/10/27 07:41:37;;;;;;;;;;;14.20;99.90;;;;;;5049608;28;19917;-57
2021/10/27 07:44:13;;;;;;;;;;;14.30;99.90;;;;;;5049542;28;19921;-57
2021/10/27 07:46:40;;;;;;;;;;;14.30;99.90;;;;;;5049867;28;19917;-56
2021/10/27 07:49:06;;;;;;;;;;;14.30;99.90;;;;;;5112794;28;19976;-57
2021/10/27 07:51:31;;;;;;;;;;;14.30;99.90;;;;;;5112354;28;19920;-56
2021/10/27 07:53:57;;;;;;;;;;;14.40;99.90;;;;;;5114132;28;19916;-58
2021/10/27 07:56:23;;;;;;;;;;;14.40;99.90;;;;;;5097978;28;19919;-57
2021/10/27 07:58:50;;;;;;;;;;;14.40;99.90;;;;;;5116421;28;19919;-57
2021/10/27 08:01:16;;;;;;;;;;;14.40;99.90;;;;;;5131592;27;19920;-57
2021/10/27 08:03:42;;;;;;;;;;;14.40;99.90;;;;;;5116103;28;19966;-57
2021/10/27 08:06:09;;;;;;;;;;;14.40;99.90;;;;;;5116041;28;20382;-57
2021/10/27 08:08:35;;;;;;;;;;;14.40;99.90;;;;;;5116236;28;19966;-57
2021/10/27 08:11:00;;;;;;;;;;;14.50;99.90;;;;;;5116003;28;19923;-57
2021/10/27 08:13:27;;;;;;;;;;;14.40;99.90;;;;;;5115991;28;19920;-57
2021/10/27 08:15:52;;;;;;;;;;;14.30;99.90;;;;;;5115857;28;20360;-57
2021/10/27 08:18:18;;;;;;;;;;;14.40;99.90;;;;;;5097719;28;19916;-57
2021/10/27 08:20:47;;;;;;;;;;;14.40;99.90;;;;;;5115811;28;19915;-57
2021/10/27 08:23:14;;;;;;;;;;;14.40;99.90;;;;;;5116055;28;19950;-57
2021/10/27 08:25:49;;;;;;;;;;;14.30;99.90;;;;;;5115863;28;19919;-57
2021/10/27 08:28:17;;;;;;;;;;;14.30;99.90;;;;;;5115771;28;19916;-57
2021/10/27 08:30:48;;;;;;;;;;;14.40;99.90;;;;;;5115634;28;19915;-57
2021/10/27 08:34:02;;;;;;;;;;;14.30;99.90;;;;;;5115708;28;19919;-57
2021/10/27 08:36:05;;;;;;;;;;;14.30;99.90;;;;;;5111432;28;19916;-57
2021/10/27 08:38:31;;;;;;;;;;;14.30;99.90;;;;;;5115418;28;20361;-57
2021/10/27 08:40:57;;;;;;;;;;;14.30;99.90;;;;;;5115439;28;20014;-57
2021/10/27 08:43:24;;;;;;;;;;;14.30;99.90;;;;;;5097330;28;19967;-57
2021/10/27 08:45:49;;;;;;;;;;;14.30;99.90;;;;;;5115461;28;19992;-57
2021/10/27 08:48:16;;;;;;;;;;;14.30;99.90;;;;;;5115902;28;19920;-57
2021/10/27 08:50:42;;;;;;;;;;;14.30;99.90;;;;;;5115634;28;19916;-57
2021/10/27 08:53:08;;;;;;;;;;;14.30;99.90;;;;;;5115099;28;19923;-57
2021/10/27 08:55:35;;;;;;;;;;;14.30;99.90;;;;;;5115179;28;20006;-57
2021/10/27 08:58:01;;;;;;;;;;;14.40;99.90;;;;;;5115095;28;19919;-57
2021/10/27 09:03:20;;;;;;;;;;;14.40;99.90;;;;;;5052194;28;19924;-57
2021/10/27 09:06:01;;;;;;;;;;;14.40;99.90;;;;;;5052066;28;20562;-58
2021/10/27 09:08:48;;;;;;;;;;;14.40;99.90;;;;;;5052096;28;19946;-57
2021/10/27 09:17:05;;;;;;;;;;;14.40;99.90;;;;;;5051972;28;20007;-57
2021/10/27 10:06:31;;;;;;;;;;;14.60;99.90;;;;;;5111561;28;19944;-57
2021/10/27 10:08:57;;;;;;;;;;;14.70;99.90;;;;;;5111712;28;19915;-57
2021/10/27 10:11:26;;;;;;;;;;;14.70;99.90;;;;;;5111500;28;20002;-56
2021/10/27 10:13:53;;;;;;;;;;;14.70;99.90;;;;;;5111311;28;20412;-57
2021/10/27 10:16:19;;;;;;;;;;;14.70;99.90;;;;;;5110790;28;20018;-57
2021/10/27 10:18:45;;;;;;;;;;;14.80;99.90;;;;;;5112822;28;19916;-56
2021/10/27 10:21:13;;;;;;;;;;;14.80;99.90;;;;;;5113524;28;20002;-57
2021/10/27 10:23:39;;;;;;;;;;;14.90;99.90;;;;;;5113274;28;19920;-57
2021/10/27 10:26:08;;;;;;;;;;;15.00;99.90;;;;;;5113451;28;20006;-57
2021/10/27 10:28:38;;;;;;;;;;;15.00;99.90;;;;;;5113399;28;20341;-57
2021/10/27 10:31:05;;;;;;;;;;;15.10;99.90;;;;;;5113417;28;19946;-57
2021/10/27 10:33:35;;;;;;;;;;;15.10;99.90;;;;;;5113300;28;20364;-57
2021/10/27 10:36:05;;;;;;;;;;;15.20;99.90;;;;;;5113068;28;19916;-57
2021/10/27 11:23:01;;;;;;;;;;;15.40;99.90;;;;;;5013232;28;20027;-56
2021/10/27 11:42:15;;;;;;;;;;;15.40;99.90;;;;;;4994389;28;19918;-57
2021/10/27 11:44:46;;;;;;;;;;;15.40;99.90;;;;;;4994425;28;20347;-56
2021/10/27 11:47:31;;;;;;;;;;;15.40;99.90;;;;;;4994447;28;19918;-57
2021/10/27 11:49:56;;;;;;;;;;;15.40;99.90;;;;;;4994334;28;19960;-57
2021/10/27 11:52:29;;;;;;;;;;;15.40;99.90;;;;;;4994375;28;19975;-57
2021/10/27 11:54:56;;;;;;;;;;;15.40;99.90;;;;;;4994329;28;19917;-57
2021/10/27 11:57:22;;;;;;;;;;;15.40;99.90;;;;;;4994248;28;20291;-57
2021/10/27 11:59:50;;;;;;;;;;;15.40;99.90;;;;;;4994278;28;19945;-56
2021/10/27 12:02:16;;;;;;;;;;;15.40;99.90;;;;;;4993950;28;19952;-57
2021/10/27 12:04:42;;;;;;;;;;;15.40;99.90;;;;;;5003634;28;19999;-57
2021/10/27 12:09:52;;;;;;;;;;;15.40;99.90;;;;;;5033554;28;19970;-57
2021/10/27 12:12:48;;;;;;;;;;;15.50;99.90;;;;;;5033375;28;19960;-56
2021/10/27 12:17:58;;;;;;;;;;;15.50;99.90;;;;;;5033318;28;20132;-56
2021/10/27 12:20:28;;;;;;;;;;;15.50;99.90;;;;;;5115844;28;19915;-58
2021/10/27 12:22:57;;;;;;;;;;;15.50;99.90;;;;;;5115569;28;19926;-57
2021/10/27 12:25:23;;;;;;;;;;;15.50;99.90;;;;;;5115771;28;19922;-57
2021/10/27 12:27:48;;;;;;;;;;;15.50;99.90;;;;;;5115853;28;19915;-57
2021/10/27 12:30:17;;;;;;;;;;;15.50;99.90;;;;;;5115635;28;19965;-57
2021/10/27 12:32:50;;;;;;;;;;;15.50;99.90;;;;;;5115558;28;19916;-57
2021/10/27 12:35:16;;;;;;;;;;;15.50;99.90;;;;;;5115538;28;20369;-57
2021/10/27 12:40:10;;;;;;;;;;;15.50;99.90;;;;;;5114785;28;20020;-56
2021/10/27 12:42:36;;;;;;;;;;;15.50;99.90;;;;;;5115349;28;19927;-56
2021/10/27 12:45:02;;;;;;;;;;;15.40;99.90;;;;;;5115849;28;20406;-57
2021/10/27 12:47:29;;;;;;;;;;;15.40;99.90;;;;;;5115297;28;19916;-57
2021/10/27 12:50:15;;;;;;;;;;;15.30;99.90;;;;;;5115590;28;19916;-56
2021/10/27 12:52:49;;;;;;;;;;;15.40;99.90;;;;;;5115300;28;19915;-56
2021/10/27 12:55:19;;;;;;;;;;;15.40;99.90;;;;;;5115162;28;20354;-56
2021/10/27 12:57:57;;;;;;;;;;;15.40;99.90;;;;;;5115237;28;20000;-56
2021/10/27 13:00:34;;;;;;;;;;;15.40;99.90;;;;;;5115155;28;19941;-56
2021/10/27 13:05:50;;;;;;;;;;;15.40;99.90;;;;;;5115017;28;19923;-57
2021/10/27 13:08:36;;;;;;;;;;;15.40;99.90;;;;;;5114998;28;20435;-56
2021/10/27 13:11:31;;;;;;;;;;;15.40;99.90;;;;;;5114834;28;19922;-57
2021/10/27 13:19:07;;;;;;;;;;;15.30;99.90;;;;;;5114775;28;19923;-57
2021/10/27 13:30:01;;;;;;;;;;;15.30;99.90;;;;;;5114846;28;19915;-57
2021/10/27 13:32:26;;;;;;;;;;;15.20;99.90;;;;;;5114790;28;20356;-57
2021/10/27 13:34:53;;;;;;;;;;;15.20;99.90;;;;;;5114407;28;19969;-57
2021/10/27 13:37:19;;;;;;;;;;;15.20;99.90;;;;;;5114235;28;19973;-57
2021/10/27 13:39:47;;;;;;;;;;;15.20;99.90;;;;;;5114140;28;19988;-57
2021/10/27 13:42:23;;;;;;;;;;;15.10;99.90;;;;;;5114562;28;19994;-56
2021/10/27 13:48:09;;;;;;;;;;;15.10;99.90;;;;;;5031459;28;19928;-57
2021/10/27 13:59:15;;;;;;;;;;;15.00;99.90;;;;;;4991914;28;19924;-57
2021/10/27 14:09:52;;;;;;;;;;;15.00;99.90;;;;;;4991628;28;19918;-56
2021/10/27 14:12:39;;;;;;;;;;;15.10;99.90;;;;;;4991607;28;19921;-56
2021/10/27 14:15:19;;;;;;;;;;;15.10;99.90;;;;;;4991485;28;19917;-57
2021/10/27 14:39:07;;;;;;;;;;;15.00;99.90;;;;;;5070457;28;20412;-57
2021/10/27 15:19:54;;;;;;;;;;;14.80;99.90;;;;;;5110110;28;19916;-62
2021/10/27 15:27:59;;;;;;;;;;;14.80;99.90;;;;;;5111684;28;19973;-62
2021/10/27 15:42:12;;;;;;;;;;;14.70;99.90;;;;;;5009902;28;20016;-62
2021/10/27 15:52:32;;;;;;;;;;;14.70;99.90;;;;;;5010023;28;20280;-62
2021/10/27 15:54:58;;;;;;;;;;;14.70;99.90;;;;;;5009793;28;19984;-62
2021/10/27 15:57:23;;;;;;;;;;;14.70;99.90;;;;;;5009757;28;19921;-62
2021/10/27 15:59:50;;;;;;;;;;;14.70;99.90;;;;;;5010123;28;20125;-62
2021/10/27 16:02:15;;;;;;;;;;;14.70;99.90;;;;;;5010178;28;20113;-62
2021/10/27 16:04:41;;;;;;;;;;;14.60;99.90;;;;;;5009682;28;19921;-62
2021/10/27 16:07:07;;;;;;;;;;;14.60;99.90;;;;;;5009850;28;19918;-61
2021/10/27 16:09:41;;;;;;;;;;;14.60;99.90;;;;;;4998074;28;19917;-62
2021/10/27 16:12:07;;;;;;;;;;;14.60;99.90;;;;;;5029623;28;19991;-62
2021/10/27 16:14:33;;;;;;;;;;;14.60;99.90;;;;;;5062927;28;19920;-62
2021/10/27 16:16:58;;;;;;;;;;;14.60;99.90;;;;;;5095765;28;19958;-62
2021/10/27 16:19:24;;;;;;;;;;;14.60;99.90;;;;;;5095781;28;20705;-62
2021/10/27 16:21:49;;;;;;;;;;;14.60;99.90;;;;;;5077559;28;20372;-62
2021/10/27 16:24:16;;;;;;;;;;;14.50;99.90;;;;;;5095214;28;20383;-63
2021/10/27 16:26:41;;;;;;;;;;;14.50;99.90;;;;;;5095496;28;19923;-63
2021/10/27 16:29:07;;;;;;;;;;;14.50;99.90;;;;;;5095295;28;19942;-62
2021/10/27 16:31:33;;;;;;;;;;;14.50;99.90;;;;;;5095592;28;19916;-63
2021/10/27 16:33:59;;;;;;;;;;;14.50;99.90;;;;;;5095685;28;19923;-63
2021/10/27 16:36:25;;;;;;;;;;;14.50;99.90;;;;;;5095125;28;19916;-63
2021/10/27 16:38:51;;;;;;;;;;;14.50;99.90;;;;;;5095274;28;19924;-62
2021/10/27 16:41:17;;;;;;;;;;;14.50;99.90;;;;;;5110997;28;19915;-62
2021/10/27 16:43:44;;;;;;;;;;;14.40;99.90;;;;;;5094828;28;20374;-63
2021/10/27 16:46:10;;;;;;;;;;;14.40;99.90;;;;;;5095052;28;19916;-62
2021/10/27 16:48:36;;;;;;;;;;;14.40;99.90;;;;;;5094998;28;19916;-62
2021/10/27 16:51:01;;;;;;;;;;;14.40;99.90;;;;;;5094889;28;20036;-63
2021/10/27 16:53:27;;;;;;;;;;;14.40;99.90;;;;;;5094693;28;19916;-63
2021/10/27 16:55:53;;;;;;;;;;;14.40;99.90;;;;;;5094965;28;19916;-62
2021/10/27 16:58:19;;;;;;;;;;;14.40;99.90;;;;;;5094861;28;19933;-62
2021/10/27 17:00:46;;;;;;;;;;;14.40;99.90;;;;;;5094567;28;20373;-62
2021/10/27 17:03:11;;;;;;;;;;;14.40;99.90;;;;;;5094746;28;19974;-62
2021/10/27 17:05:37;;;;;;;;;;;14.40;99.90;;;;;;5094867;28;20049;-62
2021/10/27 17:08:03;;;;;;;;;;;14.30;99.90;;;;;;5095199;28;19923;-62
2021/10/27 17:10:29;;;;;;;;;;;14.30;99.90;;;;;;5094707;28;19916;-62
2021/10/27 17:12:54;;;;;;;;;;;14.30;99.90;;;;;;5094463;28;20006;-63
2021/10/27 17:15:20;;;;;;;;;;;14.30;99.90;;;;;;5094853;28;19982;-62
2021/10/27 17:17:46;;;;;;;;;;;14.30;99.90;;;;;;5093235;28;20426;-62
2021/10/27 17:20:15;;;;;;;;;;;14.30;99.90;;;;;;5094253;28;19926;-62
2021/10/27 17:22:43;;;;;;;;;;;14.30;99.90;;;;;;5094340;28;20442;-62
2021/10/27 17:25:10;;;;;;;;;;;14.30;99.90;;;;;;5094109;28;19970;-62
2021/10/27 17:27:37;;;;;;;;;;;14.30;99.90;;;;;;5094133;28;19916;-62
2021/10/27 17:30:05;;;;;;;;;;;14.20;99.90;;;;;;5094137;28;19916;-62
2021/10/27 17:32:30;;;;;;;;;;;14.20;99.90;;;;;;5093926;28;19920;-62
2021/10/27 17:34:56;;;;;;;;;;;14.20;99.90;;;;;;5093833;28;19969;-62
2021/10/27 17:37:21;;;;;;;;;;;14.20;99.90;;;;;;5094236;28;19927;-62
2021/10/27 17:39:47;;;;;;;;;;;14.20;99.90;;;;;;5093603;28;19920;-62
2021/10/27 17:42:17;;;;;;;;;;;14.20;99.90;;;;;;5093771;28;19923;-62
2021/10/27 17:44:43;;;;;;;;;;;14.20;99.90;;;;;;5093708;28;19920;-61
2021/10/27 17:47:12;;;;;;;;;;;14.10;99.90;;;;;;5093789;28;19923;-62
2021/10/27 17:57:58;;;;;;;;;;;14.10;99.90;;;;;;5093507;28;19915;-62
2021/10/27 18:00:22;;;;;;;;;;;14.10;99.90;;;;;;5093305;28;19923;-62
2021/10/27 18:02:48;;;;;;;;;;;14.10;99.90;;;;;;5093493;28;19916;-62
2021/10/27 18:05:14;;;;;;;;;;;14.10;99.90;;;;;;5093278;28;19916;-62
2021/10/27 18:07:43;;;;;;;;;;;14.00;99.90;;;;;;5093274;28;19927;-62
2021/10/27 18:10:13;;;;;;;;;;;14.00;99.90;;;;;;5093292;28;19923;-62
2021/10/27 18:12:39;;;;;;;;;;;14.00;99.90;;;;;;5074910;28;20004;-61
2021/10/27 18:15:05;;;;;;;;;;;14.00;99.90;;;;;;5093256;28;19919;-62
2021/10/27 18:17:34;;;;;;;;;;;14.00;99.90;;;;;;5093186;28;19927;-61
2021/10/27 18:20:10;;;;;;;;;;;14.00;99.90;;;;;;5093049;28;19916;-62
2021/10/27 18:41:17;;;;;;;;;;;13.60;99.90;;;;;;5092722;28;19923;-62
2021/10/27 18:43:43;;;;;;;;;;;13.50;99.90;;;;;;5092603;28;19942;-62
2021/10/27 18:46:09;;;;;;;;;;;13.50;99.90;;;;;;5092582;28;19916;-61
2021/10/27 18:48:38;;;;;;;;;;;13.50;99.90;;;;;;5092842;28;19916;-62
2021/10/27 18:51:09;;;;;;;;;;;13.40;99.90;;;;;;5092672;28;19916;-62
2021/10/27 19:12:43;;;;;;;;;;;13.10;99.90;;;;;;5092444;28;19916;-62
2021/10/27 19:17:53;;;;;;;;;;;13.00;99.90;;;;;;5092505;28;20002;-62
2021/10/27 19:20:19;;;;;;;;;;;12.90;99.90;;;;;;5092193;28;20428;-62
2021/10/27 19:22:45;;;;;;;;;;;12.80;99.90;;;;;;5092236;28;19916;-62
2021/10/27 19:30:26;;;;;;;;;;;12.70;99.90;;;;;;5092138;28;19938;-62
2021/10/27 19:33:00;;;;;;;;;;;12.70;99.90;;;;;;5092193;28;20262;-62
2021/10/27 20:52:23;;;;;;;;;;;11.80;99.90;;;;;;5052414;28;19917;-63
2021/10/27 20:54:52;;;;;;;;;;;11.80;99.90;;;;;;5052496;28;19916;-63
2021/10/27 20:57:28;;;;;;;;;;;11.80;99.90;;;;;;5052402;28;20326;-63
2021/10/27 21:13:27;;;;;;;;;;;11.50;99.90;;;;;;4992889;28;19918;-63
2021/10/27 21:15:53;;;;;;;;;;;11.50;99.90;;;;;;4992983;28;20027;-63
2021/10/27 21:18:19;;;;;;;;;;;11.50;99.90;;;;;;4993018;28;20713;-62
2021/10/27 21:20:45;;;;;;;;;;;11.40;99.90;;;;;;4992864;28;19929;-62
2021/10/27 21:23:10;;;;;;;;;;;11.40;99.90;;;;;;4992572;28;19928;-63
2021/10/27 21:25:36;;;;;;;;;;;11.30;99.90;;;;;;4992703;28;20012;-63
2021/10/27 21:28:07;;;;;;;;;;;11.30;99.90;;;;;;4992498;28;19921;-63